PRIVATE WETTERSTATION BILLIGHEIM-ALLFELD                       ZURCK
Wetterdaten: Dienstag, 31.01.2017
Datum Zeit Temp. A. Temp. A. min Temp. A. max Feuchte A. Luftdruck Regen Wind Richtung Richtung Sonnenschein ET Solar Taupunkt Windchill Windben Empfang
31.01.2017 00:00 5,1 C 5,1 C 5,2 C 92 % 1012,7 hPa 0,2 l/m 8,0 km/h (2 Bft) SW 225 0 min 0,000 mm 0 W/m 3,9 C 3,7 C 16,1 km/h (3 Bft) 100 %
31.01.2017 00:10 5,1 C 5,1 C 5,2 C 92 % 1012,8 hPa 0,0 l/m 9,7 km/h (2 Bft) SW 225 0 min 0,000 mm 0 W/m 3,9 C 2,4 C 24,1 km/h (4 Bft) 91 %
31.01.2017 00:20 5,1 C 5,1 C 5,2 C 92 % 1012,8 hPa 0,2 l/m 8,0 km/h (2 Bft) SW 225 0 min 0,000 mm 0 W/m 3,9 C 3,7 C 14,5 km/h (3 Bft) 100 %
31.01.2017 00:30 5,1 C 5,1 C 5,1 C 92 % 1012,7 hPa 0,2 l/m 6,4 km/h (2 Bft) SW 225 0 min 0,000 mm 0 W/m 3,9 C 5,1 C 14,5 km/h (3 Bft) 100 %
31.01.2017 00:40 5,1 C 5,1 C 5,1 C 92 % 1012,6 hPa 0,0 l/m 6,4 km/h (2 Bft) SW 225 0 min 0,000 mm 0 W/m 3,9 C 5,1 C 17,7 km/h (3 Bft) 100 %
31.01.2017 00:50 5,1 C 5,1 C 5,1 C 92 % 1012,8 hPa 0,2 l/m 8,0 km/h (2 Bft) SW 225 0 min 0,000 mm 0 W/m 3,9 C 3,7 C 17,7 km/h (3 Bft) 100 %
31.01.2017 01:00 5,1 C 5,1 C 5,1 C 92 % 1012,7 hPa 0,2 l/m 6,4 km/h (2 Bft) SW 225 0 min 0,000 mm 0 W/m 3,9 C 5,1 C 16,1 km/h (3 Bft) 100 %
31.01.2017 01:10 5,2 C 5,1 C 5,2 C 92 % 1012,5 hPa 0,0 l/m 8,0 km/h (2 Bft) S-SW 202 0 min 0,000 mm 0 W/m 4,0 C 3,8 C 14,5 km/h (3 Bft) 100 %
31.01.2017 01:20 5,2 C 5,1 C 5,2 C 92 % 1012,6 hPa 0,2 l/m 8,0 km/h (2 Bft) SW 225 0 min 0,000 mm 0 W/m 4,0 C 3,8 C 17,7 km/h (3 Bft) 100 %
31.01.2017 01:30 5,1 C 5,1 C 5,2 C 92 % 1012,7 hPa 0,2 l/m 6,4 km/h (2 Bft) SW 225 0 min 0,000 mm 0 W/m 3,9 C 5,1 C 16,1 km/h (3 Bft) 99 %
31.01.2017 01:40 5,2 C 5,1 C 5,2 C 92 % 1012,7 hPa 0,0 l/m 4,8 km/h (1 Bft) SW 225 0 min 0,000 mm 0 W/m 4,0 C 5,2 C 12,9 km/h (3 Bft) 100 %
31.01.2017 01:50 5,2 C 5,1 C 5,2 C 92 % 1012,6 hPa 0,2 l/m 6,4 km/h (2 Bft) SW 225 0 min 0,000 mm 0 W/m 4,0 C 5,2 C 9,7 km/h (2 Bft) 100 %
31.01.2017 02:00 5,1 C 5,1 C 5,2 C 92 % 1012,6 hPa 0,0 l/m 4,8 km/h (1 Bft) W-SW 247 0 min 0,000 mm 0 W/m 3,9 C 5,1 C 11,3 km/h (2 Bft) 100 %
31.01.2017 02:10 5,1 C 5,1 C 5,2 C 92 % 1012,6 hPa 0,2 l/m 3,2 km/h (1 Bft) W-SW 247 0 min 0,000 mm 0 W/m 3,9 C 5,1 C 8,0 km/h (2 Bft) 100 %
31.01.2017 02:20 5,1 C 5,1 C 5,1 C 92 % 1012,6 hPa 0,0 l/m 4,8 km/h (1 Bft) SW 225 0 min 0,000 mm 0 W/m 3,9 C 5,1 C 9,7 km/h (2 Bft) 100 %
31.01.2017 02:30 5,1 C 5,1 C 5,1 C 92 % 1012,5 hPa 0,0 l/m 4,8 km/h (1 Bft) SW 225 0 min 0,000 mm 0 W/m 3,9 C 5,1 C 16,1 km/h (3 Bft) 100 %
31.01.2017 02:40 5,1 C 5,1 C 5,1 C 92 % 1012,5 hPa 0,2 l/m 6,4 km/h (2 Bft) SW 225 0 min 0,000 mm 0 W/m 3,9 C 5,1 C 16,1 km/h (3 Bft) 100 %
31.01.2017 02:50 5,2 C 5,1 C 5,2 C 92 % 1012,5 hPa 0,0 l/m 8,0 km/h (2 Bft) SW 225 0 min 0,000 mm 0 W/m 4,0 C 3,8 C 20,9 km/h (4 Bft) 100 %
31.01.2017 03:00 5,2 C 5,2 C 5,2 C 92 % 1012,5 hPa 0,0 l/m 8,0 km/h (2 Bft) SW 225 0 min 0,000 mm 0 W/m 4,0 C 3,8 C 20,9 km/h (4 Bft) 100 %
31.01.2017 03:10 5,3 C 5,2 C 5,3 C 92 % 1012,5 hPa 0,0 l/m 6,4 km/h (2 Bft) W-SW 247 0 min 0,000 mm 0 W/m 4,1 C 5,3 C 14,5 km/h (3 Bft) 100 %
31.01.2017 03:20 5,2 C 5,2 C 5,3 C 92 % 1012,5 hPa 0,0 l/m 4,8 km/h (1 Bft) SW 225 0 min 0,000 mm 0 W/m 4,0 C 5,2 C 14,5 km/h (3 Bft) 100 %
31.01.2017 03:30 5,3 C 5,2 C 5,3 C 92 % 1012,5 hPa 0,0 l/m 6,4 km/h (2 Bft) W-SW 247 0 min 0,000 mm 0 W/m 4,1 C 5,3 C 16,1 km/h (3 Bft) 100 %
31.01.2017 03:40 5,2 C 5,2 C 5,3 C 92 % 1012,3 hPa 0,0 l/m 4,8 km/h (1 Bft) SW 225 0 min 0,000 mm 0 W/m 4,0 C 5,2 C 9,7 km/h (2 Bft) 100 %
31.01.2017 03:50 5,2 C 5,2 C 5,2 C 92 % 1012,2 hPa 0,0 l/m 4,8 km/h (1 Bft) SW 225 0 min 0,000 mm 0 W/m 4,0 C 5,2 C 9,7 km/h (2 Bft) 100 %
31.01.2017 04:00 5,2 C 5,2 C 5,2 C 92 % 1012,3 hPa 0,0 l/m 4,8 km/h (1 Bft) SW 225 0 min 0,000 mm 0 W/m 4,0 C 5,2 C 14,5 km/h (3 Bft) 100 %
31.01.2017 04:10 5,2 C 5,2 C 5,2 C 92 % 1012,2 hPa 0,2 l/m 0,0 km/h (0 Bft) SW 225 0 min 0,000 mm 0 W/m 4,0 C 5,2 C 4,8 km/h (1 Bft) 100 %
31.01.2017 04:20 5,2 C 5,2 C 5,2 C 92 % 1012,3 hPa 0,0 l/m 3,2 km/h (1 Bft) W-SW 247 0 min 0,000 mm 0 W/m 4,0 C 5,2 C 9,7 km/h (2 Bft) 100 %
31.01.2017 04:30 5,2 C 5,2 C 5,2 C 92 % 1012,3 hPa 0,2 l/m 3,2 km/h (1 Bft) W 270 0 min 0,000 mm 0 W/m 4,0 C 5,2 C 8,0 km/h (2 Bft) 100 %
31.01.2017 04:40 5,1 C 5,1 C 5,2 C 92 % 1012,3 hPa 0,2 l/m 1,6 km/h (1 Bft) W 270 0 min 0,000 mm 0 W/m 3,9 C 5,1 C 4,8 km/h (1 Bft) 100 %
31.01.2017 04:50 4,9 C 4,9 C 5,1 C 92 % 1012,4 hPa 0,0 l/m 0,0 km/h (0 Bft) W-NW 292 0 min 0,000 mm 0 W/m 3,7 C 4,9 C 4,8 km/h (1 Bft) 100 %
31.01.2017 05:00 4,8 C 4,8 C 4,9 C 92 % 1012,4 hPa 0,2 l/m 4,8 km/h (1 Bft) W-NW 292 0 min 0,000 mm 0 W/m 3,6 C 4,8 C 9,7 km/h (2 Bft) 100 %
31.01.2017 05:10 4,7 C 4,7 C 4,8 C 92 % 1012,4 hPa 0,2 l/m 3,2 km/h (1 Bft) NW 315 0 min 0,000 mm 0 W/m 3,5 C 4,7 C 8,0 km/h (2 Bft) 100 %
31.01.2017 05:20 4,6 C 4,6 C 4,7 C 92 % 1012,4 hPa 0,2 l/m 3,2 km/h (1 Bft) NW 315 0 min 0,000 mm 0 W/m 3,4 C 4,6 C 8,0 km/h (2 Bft) 100 %
31.01.2017 05:30 4,6 C 4,6 C 4,6 C 92 % 1012,5 hPa 0,0 l/m 3,2 km/h (1 Bft) N-NW 337 0 min 0,000 mm 0 W/m 3,4 C 4,6 C 8,0 km/h (2 Bft) 100 %
31.01.2017 05:40 4,4 C 4,4 C 4,6 C 92 % 1012,6 hPa 0,0 l/m 0,0 km/h (0 Bft) N-NW 337 0 min 0,000 mm 0 W/m 3,2 C 4,4 C 8,0 km/h (2 Bft) 100 %
31.01.2017 05:50 4,1 C 4,1 C 4,4 C 92 % 1012,6 hPa 0,0 l/m 0,0 km/h (0 Bft) N 0 0 min 0,000 mm 0 W/m 2,9 C 4,1 C 0,0 km/h (0 Bft) 100 %
31.01.2017 06:00 3,9 C 3,9 C 4,0 C 92 % 1012,8 hPa 0,0 l/m 0,0 km/h (0 Bft) N 0 0 min 0,000 mm 0 W/m 2,7 C 3,9 C 0,0 km/h (0 Bft) 100 %
31.01.2017 06:10 3,8 C 3,8 C 3,9 C 92 % 1012,9 hPa 0,0 l/m 0,0 km/h (0 Bft) N 0 0 min 0,000 mm 0 W/m 2,6 C 3,8 C 0,0 km/h (0 Bft) 100 %
31.01.2017 06:20 3,8 C 3,8 C 3,8 C 92 % 1012,8 hPa 0,0 l/m 0,0 km/h (0 Bft) N 0 0 min 0,000 mm 0 W/m 2,6 C 3,8 C 0,0 km/h (0 Bft) 99 %
31.01.2017 06:30 3,7 C 3,7 C 3,8 C 92 % 1012,9 hPa 0,0 l/m 0,0 km/h (0 Bft) N 0 0 min 0,000 mm 0 W/m 2,5 C 3,7 C 0,0 km/h (0 Bft) 89 %
31.01.2017 06:40 3,6 C 3,6 C 3,7 C 92 % 1013,0 hPa 0,0 l/m 0,0 km/h (0 Bft) N 0 0 min 0,000 mm 0 W/m 2,4 C 3,6 C 0,0 km/h (0 Bft) 98 %
31.01.2017 06:50 3,5 C 3,5 C 3,6 C 92 % 1012,9 hPa 0,2 l/m 0,0 km/h (0 Bft) N 0 0 min 0,000 mm 0 W/m 2,3 C 3,5 C 0,0 km/h (0 Bft) 98 %
31.01.2017 07:00 3,4 C 3,4 C 3,5 C 92 % 1013,0 hPa 0,0 l/m 0,0 km/h (0 Bft) N 0 0 min 0,000 mm 0 W/m 2,2 C 3,4 C 0,0 km/h (0 Bft) 98 %
31.01.2017 07:10 3,3 C 3,3 C 3,4 C 92 % 1013,1 hPa 0,0 l/m 0,0 km/h (0 Bft) N 0 0 min 0,000 mm 0 W/m 2,1 C 3,3 C 0,0 km/h (0 Bft) 98 %
31.01.2017 07:20 3,3 C 3,2 C 3,3 C 92 % 1013,0 hPa 0,0 l/m 0,0 km/h (0 Bft) N 0 0 min 0,000 mm 0 W/m 2,1 C 3,3 C 0,0 km/h (0 Bft) 97 %
31.01.2017 07:30 3,3 C 3,3 C 3,3 C 92 % 1013,1 hPa 0,0 l/m 0,0 km/h (0 Bft) N 0 0 min 0,000 mm 0 W/m 2,1 C 3,3 C 0,0 km/h (0 Bft) 98 %
31.01.2017 07:40 3,3 C 3,3 C 3,3 C 92 % 1013,2 hPa 0,0 l/m 0,0 km/h (0 Bft) N 0 0 min 0,000 mm 0 W/m 2,1 C 3,3 C 0,0 km/h (0 Bft) 97 %
31.01.2017 07:50 3,2 C 3,2 C 3,3 C 92 % 1013,3 hPa 0,0 l/m 0,0 km/h (0 Bft) N 0 0 min 0,000 mm 0 W/m 2,0 C 3,2 C 0,0 km/h (0 Bft) 98 %
31.01.2017 08:00 3,0 C 3,0 C 3,2 C 92 % 1013,4 hPa 0,0 l/m 0,0 km/h (0 Bft) N 0 0 min 0,000 mm 0 W/m 1,8 C 3,0 C 0,0 km/h (0 Bft) 97 %
31.01.2017 08:10 2,9 C 2,9 C 3,0 C 92 % 1013,5 hPa 0,0 l/m 0,0 km/h (0 Bft) N 0 0 min 0,000 mm 0 W/m 1,7 C 2,9 C 0,0 km/h (0 Bft) 98 %
31.01.2017 08:20 2,9 C 2,9 C 2,9 C 92 % 1013,6 hPa 0,0 l/m 0,0 km/h (0 Bft) N 360 0 min 0,000 mm 5 W/m 1,7 C 2,9 C 1,6 km/h (1 Bft) 98 %
31.01.2017 08:30 2,8 C 2,8 C 2,9 C 92 % 1013,6 hPa 0,0 l/m 0,0 km/h (0 Bft) N 0 0 min 0,000 mm 14 W/m 1,6 C 2,8 C 0,0 km/h (0 Bft) 97 %
31.01.2017 08:40 2,8 C 2,8 C 2,8 C 92 % 1013,6 hPa 0,0 l/m 0,0 km/h (0 Bft) N 0 0 min 0,000 mm 19 W/m 1,6 C 2,8 C 0,0 km/h (0 Bft) 98 %
31.01.2017 08:50 2,8 C 2,8 C 2,8 C 92 % 1013,6 hPa 0,0 l/m 0,0 km/h (0 Bft) N 0 0 min 0,000 mm 23 W/m 1,6 C 2,8 C 0,0 km/h (0 Bft) 97 %
31.01.2017 09:00 2,8 C 2,8 C 2,8 C 92 % 1013,5 hPa 0,0 l/m 0,0 km/h (0 Bft) NW 315 0 min 0,000 mm 35 W/m 1,6 C 2,8 C 1,6 km/h (1 Bft) 98 %
31.01.2017 09:10 2,7 C 2,7 C 2,8 C 92 % 1013,6 hPa 0,0 l/m 0,0 km/h (0 Bft) N 0 0 min 0,000 mm 81 W/m 1,5 C 2,7 C 0,0 km/h (0 Bft) 98 %
31.01.2017 09:20 2,7 C 2,7 C 2,7 C 92 % 1013,8 hPa 0,0 l/m 0,0 km/h (0 Bft) N 0 0 min 0,000 mm 65 W/m 1,5 C 2,7 C 0,0 km/h (0 Bft) 98 %
31.01.2017 09:30 2,7 C 2,7 C 2,7 C 92 % 1014,0 hPa 0,0 l/m 0,0 km/h (0 Bft) N 0 0 min 0,000 mm 70 W/m 1,5 C 2,7 C 0,0 km/h (0 Bft) 98 %
31.01.2017 09:40 2,7 C 2,7 C 2,7 C 92 % 1014,0 hPa 0,0 l/m 0,0 km/h (0 Bft) N 0 0 min 0,000 mm 93 W/m 1,5 C 2,7 C 0,0 km/h (0 Bft) 97 %
31.01.2017 09:50 2,8 C 2,7 C 2,8 C 92 % 1014,2 hPa 0,0 l/m 0,0 km/h (0 Bft) N-NW 337 0 min 0,000 mm 102 W/m 1,6 C 2,8 C 3,2 km/h (1 Bft) 98 %
31.01.2017 10:00 2,7 C 2,7 C 2,8 C 92 % 1014,3 hPa 0,0 l/m 0,0 km/h (0 Bft) N-NW 337 0 min 0,025 mm 67 W/m 1,5 C 2,7 C 3,2 km/h (1 Bft) 97 %
31.01.2017 10:10 2,7 C 2,7 C 2,7 C 92 % 1014,3 hPa 0,0 l/m 0,0 km/h (0 Bft) N 0 0 min 0,000 mm 86 W/m 1,5 C 2,7 C 0,0 km/h (0 Bft) 98 %
31.01.2017 10:20 2,6 C 2,6 C 2,7 C 92 % 1014,5 hPa 0,0 l/m 0,0 km/h (0 Bft) N 0 0 min 0,000 mm 93 W/m 1,4 C 2,6 C 0,0 km/h (0 Bft) 98 %
31.01.2017 10:30 2,6 C 2,6 C 2,6 C 92 % 1014,6 hPa 0,0 l/m 0,0 km/h (0 Bft) N-NW 337 0 min 0,000 mm 84 W/m 1,4 C 2,6 C 1,6 km/h (1 Bft) 98 %
31.01.2017 10:40 2,7 C 2,6 C 2,7 C 92 % 1014,7 hPa 0,0 l/m 0,0 km/h (0 Bft) N 0 0 min 0,000 mm 67 W/m 1,5 C 2,7 C 0,0 km/h (0 Bft) 97 %
31.01.2017 10:50 2,7 C 2,7 C 2,7 C 92 % 1014,8 hPa 0,0 l/m 0,0 km/h (0 Bft) N 0 0 min 0,000 mm 72 W/m 1,5 C 2,7 C 0,0 km/h (0 Bft) 97 %
31.01.2017 11:00 2,6 C 2,6 C 2,7 C 92 % 1014,9 hPa 0,0 l/m 0,0 km/h (0 Bft) N 360 0 min 0,025 mm 104 W/m 1,4 C 2,6 C 4,8 km/h (1 Bft) 98 %
31.01.2017 11:10 2,8 C 2,6 C 2,8 C 92 % 1014,9 hPa 0,0 l/m 0,0 km/h (0 Bft) N 0 10 min 0,000 mm 188 W/m 1,6 C 2,8 C 0,0 km/h (0 Bft) 97 %
31.01.2017 11:30 3,1 C 2,6 C 3,1 C 92 % 1015,2 hPa 0,0 l/m 0,0 km/h (0 Bft) N-NW 334 0 min 0,001 mm 120 W/m 1,9 C 3,1 C 1,6 km/h (1 Bft) 99 %
31.01.2017 11:44 3,2 C 3,1 C 3,2 C 92 % 1015,2 hPa 0,0 l/m 0,0 km/h (0 Bft) N-NW 336 0 min 0,000 mm 139 W/m 2,0 C 3,2 C 1,6 km/h (1 Bft) 100 %
31.01.2017 11:50 3,2 C 3,2 C 3,2 C 92 % 1015,3 hPa 0,0 l/m 0,0 km/h (0 Bft) N-NW 336 0 min 0,000 mm 127 W/m 2,0 C 3,2 C 0,0 km/h (0 Bft) 98 %
31.01.2017 12:00 3,2 C 3,2 C 3,3 C 92 % 1015,4 hPa 0,0 l/m 0,0 km/h (0 Bft) N-NW 336 0 min 0,051 mm 128 W/m 2,0 C 3,2 C 3,2 km/h (1 Bft) 100 %
31.01.2017 12:10 3,2 C 3,1 C 3,2 C 93 % 1015,4 hPa 0,0 l/m 0,0 km/h (0 Bft) N 355 0 min 0,000 mm 125 W/m 2,2 C 3,2 C 1,6 km/h (1 Bft) 99 %
31.01.2017 12:20 3,2 C 3,1 C 3,2 C 92 % 1015,5 hPa 0,0 l/m 2,6 km/h (1 Bft) N-NW 330 0 min 0,000 mm 139 W/m 2,0 C 3,2 C 11,3 km/h (2 Bft) 98 %
31.01.2017 12:30 3,2 C 3,2 C 3,2 C 92 % 1015,4 hPa 0,0 l/m 0,3 km/h (0 Bft) N-NW 344 0 min 0,000 mm 113 W/m 2,0 C 3,2 C 4,8 km/h (1 Bft) 97 %
31.01.2017 12:40 3,2 C 3,2 C 3,2 C 93 % 1015,3 hPa 0,0 l/m 0,0 km/h (0 Bft) N-NW 348 0 min 0,000 mm 118 W/m 2,2 C 3,2 C 1,6 km/h (1 Bft) 97 %
31.01.2017 12:50 3,2 C 3,2 C 3,2 C 93 % 1015,3 hPa 0,0 l/m 1,4 km/h (1 Bft) N-NW 345 10 min 0,000 mm 162 W/m 2,2 C 3,2 C 8,0 km/h (2 Bft) 98 %
31.01.2017 13:00 3,3 C 3,2 C 3,3 C 92 % 1015,2 hPa 0,0 l/m 3,3 km/h (1 Bft) NW 319 10 min 0,000 mm 156 W/m 2,1 C 3,3 C 9,7 km/h (2 Bft) 97 %
31.01.2017 13:10 3,4 C 3,3 C 3,4 C 92 % 1015,3 hPa 0,0 l/m 3,4 km/h (1 Bft) N-NW 328 0 min 0,050 mm 142 W/m 2,2 C 3,4 C 11,3 km/h (2 Bft) 97 %
31.01.2017 13:20 3,5 C 3,4 C 3,5 C 91 % 1015,4 hPa 0,0 l/m 3,5 km/h (1 Bft) NW 317 0 min 0,000 mm 128 W/m 2,2 C 3,5 C 8,0 km/h (2 Bft) 97 %
31.01.2017 13:30 3,6 C 3,5 C 3,6 C 91 % 1015,4 hPa 0,0 l/m 1,8 km/h (1 Bft) N-NW 327 0 min 0,000 mm 114 W/m 2,3 C 3,6 C 8,0 km/h (2 Bft) 98 %
31.01.2017 13:40 3,6 C 3,6 C 3,6 C 90 % 1015,4 hPa 0,0 l/m 0,9 km/h (0 Bft) N-NW 328 0 min 0,000 mm 130 W/m 2,1 C 3,6 C 4,8 km/h (1 Bft) 97 %
31.01.2017 13:50 3,6 C 3,6 C 3,6 C 89 % 1015,3 hPa 0,0 l/m 0,0 km/h (0 Bft) NW 320 0 min 0,000 mm 107 W/m 2,0 C 3,6 C 1,6 km/h (1 Bft) 97 %
31.01.2017 14:00 3,5 C 3,5 C 3,6 C 88 % 1015,5 hPa 0,0 l/m 0,4 km/h (0 Bft) NW 322 0 min 0,000 mm 104 W/m 1,7 C 3,5 C 4,8 km/h (1 Bft) 98 %
31.01.2017 14:10 3,4 C 3,4 C 3,5 C 89 % 1015,6 hPa 0,0 l/m 0,2 km/h (0 Bft) N-NW 331 0 min 0,051 mm 90 W/m 1,8 C 3,4 C 6,4 km/h (2 Bft) 97 %
31.01.2017 14:20 3,3 C 3,3 C 3,4 C 88 % 1015,6 hPa 0,0 l/m 0,0 km/h (0 Bft) N-NW 331 0 min 0,000 mm 74 W/m 1,5 C 3,3 C 0,0 km/h (0 Bft) 90 %
31.01.2017 14:30 3,3 C 3,3 C 3,4 C 88 % 1015,6 hPa 0,0 l/m 0,0 km/h (0 Bft) N-NW 331 0 min 0,000 mm 97 W/m 1,5 C 3,3 C 0,0 km/h (0 Bft) 97 %
31.01.2017 14:40 3,2 C 3,2 C 3,3 C 88 % 1015,5 hPa 0,0 l/m 0,0 km/h (0 Bft) N-NW 331 0 min 0,000 mm 105 W/m 1,4 C 3,2 C 0,0 km/h (0 Bft) 98 %
31.01.2017 14:50 3,3 C 3,2 C 3,3 C 88 % 1015,4 hPa 0,0 l/m 0,9 km/h (0 Bft) NW 322 0 min 0,000 mm 98 W/m 1,5 C 3,3 C 8,0 km/h (2 Bft) 97 %
31.01.2017 15:00 3,4 C 3,3 C 3,4 C 88 % 1015,5 hPa 0,0 l/m 4,1 km/h (1 Bft) NW 321 0 min 0,000 mm 95 W/m 1,6 C 3,4 C 8,0 km/h (2 Bft) 97 %
31.01.2017 15:10 3,4 C 3,4 C 3,4 C 87 % 1015,7 hPa 0,0 l/m 2,4 km/h (1 Bft) NW 309 0 min 0,025 mm 83 W/m 1,4 C 3,4 C 6,4 km/h (2 Bft) 98 %
31.01.2017 15:20 3,4 C 3,4 C 3,4 C 86 % 1015,6 hPa 0,0 l/m 0,3 km/h (0 Bft) NW 309 0 min 0,001 mm 81 W/m 1,3 C 3,4 C 4,8 km/h (1 Bft) 97 %
31.01.2017 15:30 3,4 C 3,4 C 3,4 C 86 % 1015,8 hPa 0,0 l/m 0,0 km/h (0 Bft) NW 310 0 min 0,000 mm 76 W/m 1,3 C 3,4 C 1,6 km/h (1 Bft) 97 %
31.01.2017 15:40 3,3 C 3,3 C 3,4 C 86 % 1015,9 hPa 0,0 l/m 1,7 km/h (1 Bft) W-NW 299 0 min 0,000 mm 54 W/m 1,2 C 3,3 C 6,4 km/h (2 Bft) 97 %
31.01.2017 15:50 3,2 C 3,2 C 3,3 C 86 % 1015,9 hPa 0,0 l/m 0,9 km/h (0 Bft) W-NW 302 0 min 0,000 mm 44 W/m 1,1 C 3,2 C 6,4 km/h (2 Bft) 98 %
31.01.2017 16:00 3,2 C 3,2 C 3,2 C 86 % 1016,0 hPa 0,0 l/m 0,1 km/h (0 Bft) W-NW 302 0 min 0,000 mm 42 W/m 1,1 C 3,2 C 4,8 km/h (1 Bft) 100 %
31.01.2017 16:10 3,1 C 3,1 C 3,2 C 85 % 1016,0 hPa 0,0 l/m 0,0 km/h (0 Bft) W-NW 302 0 min 0,025 mm 28 W/m 0,8 C 3,1 C 0,0 km/h (0 Bft) 100 %
31.01.2017 16:20 2,9 C 2,9 C 3,1 C 86 % 1016,0 hPa 0,0 l/m 0,0 km/h (0 Bft) W-NW 302 0 min 0,000 mm 21 W/m 0,8 C 2,9 C 0,0 km/h (0 Bft) 100 %
31.01.2017 16:30 2,8 C 2,8 C 2,9 C 86 % 1016,1 hPa 0,0 l/m 0,0 km/h (0 Bft) W-NW 302 0 min 0,000 mm 19 W/m 0,7 C 2,8 C 0,0 km/h (0 Bft) 100 %
31.01.2017 16:40 2,7 C 2,7 C 2,8 C 86 % 1016,1 hPa 0,0 l/m 0,0 km/h (0 Bft) W-NW 302 0 min 0,000 mm 14 W/m 0,6 C 2,7 C 0,0 km/h (0 Bft) 100 %
31.01.2017 16:50 2,5 C 2,5 C 2,7 C 86 % 1016,3 hPa 0,0 l/m 0,0 km/h (0 Bft) W-NW 302 0 min 0,000 mm 9 W/m 0,4 C 2,5 C 1,6 km/h (1 Bft) 100 %
31.01.2017 17:00 2,4 C 2,4 C 2,5 C 87 % 1016,4 hPa 0,0 l/m 0,0 km/h (0 Bft) NW 311 0 min 0,000 mm 5 W/m 0,5 C 2,4 C 0,0 km/h (0 Bft) 100 %
31.01.2017 17:10 2,2 C 2,2 C 2,4 C 88 % 1016,5 hPa 0,0 l/m 0,4 km/h (0 Bft) NW 319 0 min 0,000 mm 0 W/m 0,4 C 2,2 C 4,8 km/h (1 Bft) 99 %
31.01.2017 17:20 2,1 C 2,1 C 2,2 C 88 % 1016,5 hPa 0,0 l/m 0,0 km/h (0 Bft) NW 319 0 min 0,000 mm 0 W/m 0,3 C 2,1 C 0,0 km/h (0 Bft) 100 %
31.01.2017 17:30 1,9 C 1,9 C 2,1 C 89 % 1016,6 hPa 0,0 l/m 0,0 km/h (0 Bft) NW 319 0 min 0,000 mm 0 W/m 0,3 C 1,9 C 0,0 km/h (0 Bft) 100 %
31.01.2017 17:40 1,8 C 1,8 C 2,0 C 89 % 1016,7 hPa 0,0 l/m 0,0 km/h (0 Bft) NW 319 0 min 0,000 mm 0 W/m 0,2 C 1,8 C 0,0 km/h (0 Bft) 100 %
31.01.2017 17:50 1,8 C 1,8 C 1,8 C 90 % 1016,8 hPa 0,0 l/m 0,0 km/h (0 Bft) NW 319 0 min 0,000 mm 0 W/m 0,3 C 1,8 C 0,0 km/h (0 Bft) 100 %
31.01.2017 18:00 1,6 C 1,6 C 1,8 C 90 % 1016,8 hPa 0,0 l/m 0,0 km/h (0 Bft) NW 319 0 min 0,000 mm 0 W/m 0,1 C 1,6 C 0,0 km/h (0 Bft) 100 %
31.01.2017 18:10 1,6 C 1,6 C 1,6 C 91 % 1017,0 hPa 0,0 l/m 0,0 km/h (0 Bft) NW 319 0 min 0,000 mm 0 W/m 0,3 C 1,6 C 0,0 km/h (0 Bft) 100 %
31.01.2017 18:20 1,4 C 1,4 C 1,6 C 91 % 1017,0 hPa 0,0 l/m 0,0 km/h (0 Bft) NW 319 0 min 0,000 mm 0 W/m 0,1 C 1,4 C 0,0 km/h (0 Bft) 100 %
31.01.2017 18:30 1,4 C 1,4 C 1,4 C 91 % 1017,2 hPa 0,0 l/m 0,0 km/h (0 Bft) NW 319 0 min 0,000 mm 0 W/m 0,1 C 1,4 C 0,0 km/h (0 Bft) 100 %
31.01.2017 18:40 1,4 C 1,4 C 1,4 C 91 % 1017,2 hPa 0,0 l/m 0,0 km/h (0 Bft) NW 319 0 min 0,000 mm 0 W/m 0,1 C 1,4 C 0,0 km/h (0 Bft) 100 %
31.01.2017 18:50 1,4 C 1,4 C 1,4 C 91 % 1017,3 hPa 0,0 l/m 0,0 km/h (0 Bft) NW 319 0 min 0,000 mm 0 W/m 0,1 C 1,4 C 0,0 km/h (0 Bft) 100 %
31.01.2017 19:00 1,3 C 1,3 C 1,4 C 91 % 1017,3 hPa 0,0 l/m 0,0 km/h (0 Bft) NW 319 0 min 0,000 mm 0 W/m -0,0 C 1,3 C 0,0 km/h (0 Bft) 100 %
31.01.2017 19:10 1,3 C 1,3 C 1,3 C 91 % 1017,4 hPa 0,0 l/m 0,0 km/h (0 Bft) NW 319 0 min 0,000 mm 0 W/m -0,0 C 1,3 C 0,0 km/h (0 Bft) 100 %
31.01.2017 19:20 1,2 C 1,2 C 1,3 C 91 % 1017,5 hPa 0,0 l/m 0,0 km/h (0 Bft) NW 319 0 min 0,000 mm 0 W/m -0,1 C 1,2 C 0,0 km/h (0 Bft) 100 %
31.01.2017 19:30 1,2 C 1,2 C 1,2 C 91 % 1017,6 hPa 0,0 l/m 0,0 km/h (0 Bft) NW 319 0 min 0,000 mm 0 W/m -0,1 C 1,2 C 0,0 km/h (0 Bft) 100 %
31.01.2017 19:40 1,1 C 1,1 C 1,2 C 91 % 1017,6 hPa 0,0 l/m 0,0 km/h (0 Bft) NW 319 0 min 0,000 mm 0 W/m -0,2 C 1,1 C 1,6 km/h (1 Bft) 100 %
31.01.2017 19:50 1,1 C 1,1 C 1,1 C 91 % 1017,7 hPa 0,0 l/m 1,5 km/h (1 Bft) NW 326 0 min 0,000 mm 0 W/m -0,2 C 1,1 C 4,8 km/h (1 Bft) 100 %
31.01.2017 20:00 1,1 C 1,1 C 1,1 C 91 % 1017,7 hPa 0,0 l/m 0,4 km/h (0 Bft) N-NW 333 0 min 0,000 mm 0 W/m -0,2 C 1,1 C 4,8 km/h (1 Bft) 100 %
31.01.2017 20:10 1,1 C 1,1 C 1,1 C 91 % 1017,9 hPa 0,0 l/m 2,1 km/h (1 Bft) N 355 0 min 0,000 mm 0 W/m -0,2 C 1,1 C 4,8 km/h (1 Bft) 100 %
31.01.2017 20:20 1,2 C 1,1 C 1,2 C 91 % 1017,9 hPa 0,0 l/m 0,0 km/h (0 Bft) N 355 0 min 0,000 mm 0 W/m -0,1 C 1,2 C 1,6 km/h (1 Bft) 100 %
31.01.2017 20:30 1,2 C 1,2 C 1,2 C 90 % 1017,9 hPa 0,0 l/m 0,0 km/h (0 Bft) N 355 0 min 0,000 mm 0 W/m -0,3 C 1,2 C 0,0 km/h (0 Bft) 100 %
31.01.2017 20:40 1,2 C 1,2 C 1,2 C 90 % 1017,9 hPa 0,0 l/m 0,0 km/h (0 Bft) N 355 0 min 0,000 mm 0 W/m -0,3 C 1,2 C 1,6 km/h (1 Bft) 100 %
31.01.2017 20:50 1,1 C 1,1 C 1,2 C 91 % 1017,9 hPa 0,0 l/m 0,0 km/h (0 Bft) N 5 0 min 0,000 mm 0 W/m -0,2 C 1,1 C 0,0 km/h (0 Bft) 100 %
31.01.2017 21:00 1,1 C 1,1 C 1,1 C 91 % 1017,9 hPa 0,0 l/m 0,0 km/h (0 Bft) N 5 0 min 0,000 mm 0 W/m -0,2 C 1,1 C 0,0 km/h (0 Bft) 100 %
31.01.2017 21:10 1,1 C 1,1 C 1,1 C 91 % 1017,9 hPa 0,0 l/m 0,0 km/h (0 Bft) N 0 0 min 0,000 mm 0 W/m -0,2 C 1,1 C 0,0 km/h (0 Bft) 100 %
31.01.2017 21:20 1,1 C 1,1 C 1,1 C 91 % 1017,9 hPa 0,0 l/m 0,0 km/h (0 Bft) N 0 0 min 0,000 mm 0 W/m -0,2 C 1,1 C 0,0 km/h (0 Bft) 99 %
31.01.2017 21:30 1,1 C 1,1 C 1,1 C 90 % 1018,0 hPa 0,0 l/m 0,0 km/h (0 Bft) N 360 0 min 0,000 mm 0 W/m -0,4 C 1,1 C 1,6 km/h (1 Bft) 100 %
31.01.2017 21:40 1,1 C 1,1 C 1,1 C 90 % 1018,0 hPa 0,0 l/m 0,0 km/h (0 Bft) N 0 0 min 0,000 mm 0 W/m -0,4 C 1,1 C 0,0 km/h (0 Bft) 100 %
31.01.2017 21:50 1,1 C 1,1 C 1,1 C 90 % 1018,1 hPa 0,0 l/m 0,0 km/h (0 Bft) N 0 0 min 0,000 mm 0 W/m -0,4 C 1,1 C 0,0 km/h (0 Bft) 98 %
31.01.2017 22:00 1,1 C 1,1 C 1,1 C 90 % 1018,0 hPa 0,0 l/m 0,0 km/h (0 Bft) N 0 0 min 0,000 mm 0 W/m -0,4 C 1,1 C 0,0 km/h (0 Bft) 98 %
31.01.2017 22:10 1,1 C 1,1 C 1,1 C 89 % 1017,9 hPa 0,0 l/m 0,0 km/h (0 Bft) N 360 0 min 0,000 mm 0 W/m -0,5 C 1,1 C 4,8 km/h (1 Bft) 97 %
31.01.2017 22:20 1,1 C 1,1 C 1,1 C 89 % 1018,0 hPa 0,0 l/m 0,0 km/h (0 Bft) N 360 0 min 0,000 mm 0 W/m -0,5 C 1,1 C 6,4 km/h (2 Bft) 98 %
31.01.2017 22:30 1,1 C 1,1 C 1,1 C 89 % 1018,1 hPa 0,0 l/m 0,0 km/h (0 Bft) N 0 0 min 0,000 mm 0 W/m -0,5 C 1,1 C 0,0 km/h (0 Bft) 97 %
31.01.2017 22:40 1,2 C 1,1 C 1,2 C 89 % 1017,9 hPa 0,0 l/m 0,0 km/h (0 Bft) N 360 0 min 0,000 mm 0 W/m -0,4 C 1,2 C 1,6 km/h (1 Bft) 98 %
31.01.2017 22:50 1,2 C 1,2 C 1,2 C 88 % 1018,2 hPa 0,0 l/m 0,0 km/h (0 Bft) N 0 0 min 0,000 mm 0 W/m -0,6 C 1,2 C 0,0 km/h (0 Bft) 89 %
31.01.2017 23:00 1,1 C 1,1 C 1,2 C 89 % 1018,2 hPa 0,0 l/m 0,0 km/h (0 Bft) N 0 0 min 0,000 mm 0 W/m -0,5 C 1,1 C 0,0 km/h (0 Bft) 98 %
31.01.2017 23:10 1,1 C 1,1 C 1,1 C 89 % 1018,3 hPa 0,0 l/m 0,0 km/h (0 Bft) N 0 0 min 0,000 mm 0 W/m -0,5 C 1,1 C 0,0 km/h (0 Bft) 98 %
31.01.2017 23:20 1,1 C 1,1 C 1,1 C 89 % 1018,2 hPa 0,0 l/m 0,0 km/h (0 Bft) N-NO 22 0 min 0,000 mm 0 W/m -0,5 C 1,1 C 1,6 km/h (1 Bft) 97 %
31.01.2017 23:30 1,0 C 1,0 C 1,1 C 89 % 1018,3 hPa 0,0 l/m 0,0 km/h (0 Bft) N 0 0 min 0,000 mm 0 W/m -0,6 C 1,0 C 0,0 km/h (0 Bft) 98 %
31.01.2017 23:40 1,0 C 1,0 C 1,1 C 89 % 1018,4 hPa 0,0 l/m 0,0 km/h (0 Bft) N-NO 22 0 min 0,000 mm 0 W/m -0,6 C 1,0 C 4,8 km/h (1 Bft) 97 %
31.01.2017 23:50 1,0 C 1,0 C 1,1 C 89 % 1018,5 hPa 0,0 l/m 0,0 km/h (0 Bft) N-NO 22 0 min 0,000 mm 0 W/m -0,6 C 1,0 C 3,2 km/h (1 Bft) 97 %
_ Min-Zeit 23:30 23:30 19:50 16:10 03:50 - 04:10 - - - - - 23:30 23:30 05:50 06:30
Minimum _ 1,0 C 1,0 C 1,1 C 85 % 1012,2 hPa - 0,0 km/h (0 Bft) - - - - - -0,6 C 1,0 C 0,0 km/h (0 Bft) 89 %
_ Max-Zeit 03:10 03:00 03:10 12:10 23:50 00:00 00:10 - - 11:10 12:00 11:10 03:10 03:10 00:10 00:00
Maximum _ 5,3 C 5,2 C 5,3 C 93 % 1018,5 hPa 0,2 l/m 9,7 km/h
SW (2 Bft)
- - 10 min 0,051 mm 188 W/m 4,1 C 5,3 C 24,1 km/h
W-SW (4 Bft)
100 %
Durchschnitt _ 3,1 C 3,1 C 3,1 C 91 % 1015,0 hPa #3,4 l/m 1,5 km/h (1 Bft) SW - #30 min. #0,254 mm 84 W/m 1,7 C 3,0 C 4,5 km/h (1 Bft) 99 %
PRIVATE WETTERSTATION BILLIGHEIM-ALLFELD - www.neckar-odenwald-wetter.de - Holger Sonntag